<?xml version="1.0" encoding="UTF-8" standalone="no" ?>
<gpx xmlns="http://www.topografix.com/GPX/1/1" xmlns:xsi="http://www.w3.org/2001/XMLSchema-instance" xsi:schemaLocation="http://www.topografix.com/GPX/1/1 http://www.topografix.com/GPX/1/1/gpx.xsd" version="1.1" creator="VisuGPX - https://www.visugpx.com">
  <metadata>
    <name>14418092-RS St Priest- Les Cervettes</name>
  </metadata>
  <trk>
    <name><![CDATA[14418092-RS St Priest- Les Cervettes]]></name>
    <trkseg>
      <trkpt lat="45.6925" lon="4.95693">
        <ele>228</ele>
        <time>2022-03-17T07:12:19Z</time>
      </trkpt>
      <trkpt lat="45.69247" lon="4.95736">
        <ele>230</ele>
        <time>2022-03-17T07:12:59Z</time>
      </trkpt>
      <trkpt lat="45.69242" lon="4.95741">
        <ele>230</ele>
        <time>2022-03-17T07:13:07Z</time>
      </trkpt>
      <trkpt lat="45.69239" lon="4.95751">
        <ele>230</ele>
        <time>2022-03-17T07:13:18Z</time>
      </trkpt>
      <trkpt lat="45.6924" lon="4.9576">
        <ele>230</ele>
        <time>2022-03-17T07:13:26Z</time>
      </trkpt>
      <trkpt lat="45.69244" lon="4.95768">
        <ele>230</ele>
        <time>2022-03-17T07:13:35Z</time>
      </trkpt>
      <trkpt lat="45.6925" lon="4.95771">
        <ele>230</ele>
        <time>2022-03-17T07:13:44Z</time>
      </trkpt>
      <trkpt lat="45.69228" lon="4.9616">
        <ele>236</ele>
        <time>2022-03-17T07:19:48Z</time>
      </trkpt>
      <trkpt lat="45.69227" lon="4.9616">
        <ele>236</ele>
        <time>2022-03-17T07:19:49Z</time>
      </trkpt>
      <trkpt lat="45.69228" lon="4.9616">
        <ele>236</ele>
        <time>2022-03-17T07:19:50Z</time>
      </trkpt>
      <trkpt lat="45.69232" lon="4.96161">
        <ele>236</ele>
        <time>2022-03-17T07:19:56Z</time>
      </trkpt>
      <trkpt lat="45.69237" lon="4.96165">
        <ele>236</ele>
        <time>2022-03-17T07:20:03Z</time>
      </trkpt>
      <trkpt lat="45.69244" lon="4.96164">
        <ele>236</ele>
        <time>2022-03-17T07:20:13Z</time>
      </trkpt>
      <trkpt lat="45.69365" lon="4.96206">
        <ele>236</ele>
        <time>2022-03-17T07:22:59Z</time>
      </trkpt>
      <trkpt lat="45.69494" lon="4.96245">
        <ele>237</ele>
        <time>2022-03-17T07:25:55Z</time>
      </trkpt>
      <trkpt lat="45.69497" lon="4.96244">
        <ele>237</ele>
        <time>2022-03-17T07:25:59Z</time>
      </trkpt>
      <trkpt lat="45.69494" lon="4.96245">
        <ele>237</ele>
        <time>2022-03-17T07:26:03Z</time>
      </trkpt>
      <trkpt lat="45.69501" lon="4.96266">
        <ele>238</ele>
        <time>2022-03-17T07:26:25Z</time>
      </trkpt>
      <trkpt lat="45.69528" lon="4.96367">
        <ele>244</ele>
        <time>2022-03-17T07:28:05Z</time>
      </trkpt>
      <trkpt lat="45.69535" lon="4.96408">
        <ele>246</ele>
        <time>2022-03-17T07:28:45Z</time>
      </trkpt>
      <trkpt lat="45.69699" lon="4.96319">
        <ele>239</ele>
        <time>2022-03-17T07:32:39Z</time>
      </trkpt>
      <trkpt lat="45.69701" lon="4.96336">
        <ele>239</ele>
        <time>2022-03-17T07:32:55Z</time>
      </trkpt>
      <trkpt lat="45.69699" lon="4.96319">
        <ele>239</ele>
        <time>2022-03-17T07:33:11Z</time>
      </trkpt>
      <trkpt lat="45.69703" lon="4.96316">
        <ele>239</ele>
        <time>2022-03-17T07:33:17Z</time>
      </trkpt>
      <trkpt lat="45.69707" lon="4.9631">
        <ele>239</ele>
        <time>2022-03-17T07:33:25Z</time>
      </trkpt>
      <trkpt lat="45.69734" lon="4.96349">
        <ele>238</ele>
        <time>2022-03-17T07:34:16Z</time>
      </trkpt>
      <trkpt lat="45.69763" lon="4.96385">
        <ele>237</ele>
        <time>2022-03-17T07:35:07Z</time>
      </trkpt>
      <trkpt lat="45.69779" lon="4.96411">
        <ele>237</ele>
        <time>2022-03-17T07:35:39Z</time>
      </trkpt>
      <trkpt lat="45.69794" lon="4.96448">
        <ele>236</ele>
        <time>2022-03-17T07:36:19Z</time>
      </trkpt>
      <trkpt lat="45.69799" lon="4.96467">
        <ele>235</ele>
        <time>2022-03-17T07:36:38Z</time>
      </trkpt>
      <trkpt lat="45.69808" lon="4.9651">
        <ele>234</ele>
        <time>2022-03-17T07:37:20Z</time>
      </trkpt>
      <trkpt lat="45.69826" lon="4.96617">
        <ele>232</ele>
        <time>2022-03-17T07:39:03Z</time>
      </trkpt>
      <trkpt lat="45.6984" lon="4.96683">
        <ele>232</ele>
        <time>2022-03-17T07:40:07Z</time>
      </trkpt>
      <trkpt lat="45.69856" lon="4.96743">
        <ele>233</ele>
        <time>2022-03-17T07:41:07Z</time>
      </trkpt>
      <trkpt lat="45.69874" lon="4.96805">
        <ele>234</ele>
        <time>2022-03-17T07:42:09Z</time>
      </trkpt>
      <trkpt lat="45.69889" lon="4.96856">
        <ele>234</ele>
        <time>2022-03-17T07:43:01Z</time>
      </trkpt>
      <trkpt lat="45.69906" lon="4.96899">
        <ele>235</ele>
        <time>2022-03-17T07:43:47Z</time>
      </trkpt>
      <trkpt lat="45.69927" lon="4.96936">
        <ele>235</ele>
        <time>2022-03-17T07:44:31Z</time>
      </trkpt>
      <trkpt lat="45.69964" lon="4.9698">
        <ele>234</ele>
        <time>2022-03-17T07:45:36Z</time>
      </trkpt>
      <trkpt lat="45.69988" lon="4.97001">
        <ele>233</ele>
        <time>2022-03-17T07:46:13Z</time>
      </trkpt>
      <trkpt lat="45.7001" lon="4.97014">
        <ele>232</ele>
        <time>2022-03-17T07:46:45Z</time>
      </trkpt>
      <trkpt lat="45.70025" lon="4.97019">
        <ele>232</ele>
        <time>2022-03-17T07:47:05Z</time>
      </trkpt>
      <trkpt lat="45.70062" lon="4.97024">
        <ele>231</ele>
        <time>2022-03-17T07:47:55Z</time>
      </trkpt>
      <trkpt lat="45.70074" lon="4.97025">
        <ele>231</ele>
        <time>2022-03-17T07:48:11Z</time>
      </trkpt>
      <trkpt lat="45.70147" lon="4.97014">
        <ele>229</ele>
        <time>2022-03-17T07:49:49Z</time>
      </trkpt>
      <trkpt lat="45.70161" lon="4.97008">
        <ele>228</ele>
        <time>2022-03-17T07:50:09Z</time>
      </trkpt>
      <trkpt lat="45.70158" lon="4.97017">
        <ele>228</ele>
        <time>2022-03-17T07:50:18Z</time>
      </trkpt>
      <trkpt lat="45.701" lon="4.97131">
        <ele>229</ele>
        <time>2022-03-17T07:52:29Z</time>
      </trkpt>
      <trkpt lat="45.70097" lon="4.97162">
        <ele>229</ele>
        <time>2022-03-17T07:52:58Z</time>
      </trkpt>
      <trkpt lat="45.70095" lon="4.97172">
        <ele>228</ele>
        <time>2022-03-17T07:53:08Z</time>
      </trkpt>
      <trkpt lat="45.70082" lon="4.97194">
        <ele>228</ele>
        <time>2022-03-17T07:53:35Z</time>
      </trkpt>
      <trkpt lat="45.70072" lon="4.97216">
        <ele>227</ele>
        <time>2022-03-17T07:53:59Z</time>
      </trkpt>
      <trkpt lat="45.70086" lon="4.9723">
        <ele>226</ele>
        <time>2022-03-17T07:54:22Z</time>
      </trkpt>
      <trkpt lat="45.70057" lon="4.97297">
        <ele>226</ele>
        <time>2022-03-17T07:55:36Z</time>
      </trkpt>
      <trkpt lat="45.70046" lon="4.97288">
        <ele>227</ele>
        <time>2022-03-17T07:55:53Z</time>
      </trkpt>
      <trkpt lat="45.70024" lon="4.97338">
        <ele>227</ele>
        <time>2022-03-17T07:56:48Z</time>
      </trkpt>
      <trkpt lat="45.70015" lon="4.97331">
        <ele>228</ele>
        <time>2022-03-17T07:57:01Z</time>
      </trkpt>
      <trkpt lat="45.70007" lon="4.97381">
        <ele>228</ele>
        <time>2022-03-17T07:57:49Z</time>
      </trkpt>
      <trkpt lat="45.70005" lon="4.97421">
        <ele>229</ele>
        <time>2022-03-17T07:58:27Z</time>
      </trkpt>
      <trkpt lat="45.70012" lon="4.97485">
        <ele>230</ele>
        <time>2022-03-17T07:59:27Z</time>
      </trkpt>
      <trkpt lat="45.70005" lon="4.97521">
        <ele>231</ele>
        <time>2022-03-17T08:00:02Z</time>
      </trkpt>
      <trkpt lat="45.69926" lon="4.97666">
        <ele>238</ele>
        <time>2022-03-17T08:02:53Z</time>
      </trkpt>
      <trkpt lat="45.69868" lon="4.97781">
        <ele>236</ele>
        <time>2022-03-17T08:05:05Z</time>
      </trkpt>
      <trkpt lat="45.69867" lon="4.97788">
        <ele>236</ele>
        <time>2022-03-17T08:05:12Z</time>
      </trkpt>
      <trkpt lat="45.69847" lon="4.97831">
        <ele>237</ele>
        <time>2022-03-17T08:06:00Z</time>
      </trkpt>
      <trkpt lat="45.69795" lon="4.9792">
        <ele>239</ele>
        <time>2022-03-17T08:07:48Z</time>
      </trkpt>
      <trkpt lat="45.69782" lon="4.97933">
        <ele>239</ele>
        <time>2022-03-17T08:08:09Z</time>
      </trkpt>
      <trkpt lat="45.69766" lon="4.97937">
        <ele>240</ele>
        <time>2022-03-17T08:08:31Z</time>
      </trkpt>
      <trkpt lat="45.69751" lon="4.97937">
        <ele>241</ele>
        <time>2022-03-17T08:08:51Z</time>
      </trkpt>
      <trkpt lat="45.69737" lon="4.97936">
        <ele>241</ele>
        <time>2022-03-17T08:09:10Z</time>
      </trkpt>
      <trkpt lat="45.69715" lon="4.97944">
        <ele>241</ele>
        <time>2022-03-17T08:09:40Z</time>
      </trkpt>
      <trkpt lat="45.6969" lon="4.97961">
        <ele>240</ele>
        <time>2022-03-17T08:10:17Z</time>
      </trkpt>
      <trkpt lat="45.69675" lon="4.97981">
        <ele>240</ele>
        <time>2022-03-17T08:10:44Z</time>
      </trkpt>
      <trkpt lat="45.69666" lon="4.98004">
        <ele>240</ele>
        <time>2022-03-17T08:11:09Z</time>
      </trkpt>
      <trkpt lat="45.69654" lon="4.98013">
        <ele>240</ele>
        <time>2022-03-17T08:11:27Z</time>
      </trkpt>
      <trkpt lat="45.69627" lon="4.98054">
        <ele>240</ele>
        <time>2022-03-17T08:12:20Z</time>
      </trkpt>
      <trkpt lat="45.69622" lon="4.98056">
        <ele>240</ele>
        <time>2022-03-17T08:12:27Z</time>
      </trkpt>
      <trkpt lat="45.69616" lon="4.98062">
        <ele>240</ele>
        <time>2022-03-17T08:12:36Z</time>
      </trkpt>
      <trkpt lat="45.69561" lon="4.98143">
        <ele>241</ele>
        <time>2022-03-17T08:14:22Z</time>
      </trkpt>
      <trkpt lat="45.695" lon="4.98245">
        <ele>243</ele>
        <time>2022-03-17T08:16:27Z</time>
      </trkpt>
      <trkpt lat="45.69485" lon="4.98276">
        <ele>243</ele>
        <time>2022-03-17T08:17:02Z</time>
      </trkpt>
      <trkpt lat="45.69476" lon="4.98302">
        <ele>243</ele>
        <time>2022-03-17T08:17:29Z</time>
      </trkpt>
      <trkpt lat="45.69475" lon="4.98316">
        <ele>243</ele>
        <time>2022-03-17T08:17:42Z</time>
      </trkpt>
      <trkpt lat="45.69477" lon="4.98324">
        <ele>243</ele>
        <time>2022-03-17T08:17:50Z</time>
      </trkpt>
      <trkpt lat="45.69485" lon="4.98329">
        <ele>242</ele>
        <time>2022-03-17T08:18:02Z</time>
      </trkpt>
      <trkpt lat="45.69508" lon="4.98331">
        <ele>242</ele>
        <time>2022-03-17T08:18:32Z</time>
      </trkpt>
      <trkpt lat="45.69512" lon="4.98335">
        <ele>241</ele>
        <time>2022-03-17T08:18:39Z</time>
      </trkpt>
      <trkpt lat="45.69514" lon="4.98343">
        <ele>241</ele>
        <time>2022-03-17T08:18:47Z</time>
      </trkpt>
      <trkpt lat="45.69481" lon="4.98344">
        <ele>242</ele>
        <time>2022-03-17T08:19:31Z</time>
      </trkpt>
      <trkpt lat="45.69449" lon="4.9834">
        <ele>243</ele>
        <time>2022-03-17T08:20:14Z</time>
      </trkpt>
      <trkpt lat="45.69387" lon="4.9832">
        <ele>244</ele>
        <time>2022-03-17T08:21:39Z</time>
      </trkpt>
      <trkpt lat="45.6937" lon="4.98317">
        <ele>245</ele>
        <time>2022-03-17T08:22:01Z</time>
      </trkpt>
      <trkpt lat="45.6935" lon="4.98318">
        <ele>245</ele>
        <time>2022-03-17T08:22:28Z</time>
      </trkpt>
      <trkpt lat="45.69307" lon="4.9833">
        <ele>245</ele>
        <time>2022-03-17T08:23:27Z</time>
      </trkpt>
      <trkpt lat="45.69289" lon="4.98333">
        <ele>245</ele>
        <time>2022-03-17T08:23:51Z</time>
      </trkpt>
      <trkpt lat="45.69289" lon="4.98326">
        <ele>245</ele>
        <time>2022-03-17T08:23:57Z</time>
      </trkpt>
      <trkpt lat="45.69293" lon="4.98319">
        <ele>245</ele>
        <time>2022-03-17T08:24:06Z</time>
      </trkpt>
      <trkpt lat="45.69302" lon="4.98314">
        <ele>245</ele>
        <time>2022-03-17T08:24:19Z</time>
      </trkpt>
      <trkpt lat="45.69285" lon="4.98168">
        <ele>246</ele>
        <time>2022-03-17T08:26:37Z</time>
      </trkpt>
      <trkpt lat="45.69284" lon="4.98147">
        <ele>247</ele>
        <time>2022-03-17T08:26:56Z</time>
      </trkpt>
      <trkpt lat="45.69306" lon="4.97967">
        <ele>246</ele>
        <time>2022-03-17T08:29:47Z</time>
      </trkpt>
      <trkpt lat="45.69308" lon="4.97947">
        <ele>245</ele>
        <time>2022-03-17T08:30:05Z</time>
      </trkpt>
      <trkpt lat="45.69304" lon="4.97883">
        <ele>245</ele>
        <time>2022-03-17T08:31:05Z</time>
      </trkpt>
      <trkpt lat="45.69304" lon="4.97857">
        <ele>244</ele>
        <time>2022-03-17T08:31:29Z</time>
      </trkpt>
      <trkpt lat="45.69308" lon="4.97824">
        <ele>244</ele>
        <time>2022-03-17T08:32:01Z</time>
      </trkpt>
      <trkpt lat="45.69313" lon="4.97796">
        <ele>243</ele>
        <time>2022-03-17T08:32:28Z</time>
      </trkpt>
      <trkpt lat="45.69352" lon="4.97667">
        <ele>241</ele>
        <time>2022-03-17T08:34:39Z</time>
      </trkpt>
      <trkpt lat="45.69365" lon="4.97615">
        <ele>242</ele>
        <time>2022-03-17T08:35:30Z</time>
      </trkpt>
      <trkpt lat="45.69375" lon="4.97547">
        <ele>243</ele>
        <time>2022-03-17T08:36:35Z</time>
      </trkpt>
      <trkpt lat="45.6941" lon="4.97388">
        <ele>244</ele>
        <time>2022-03-17T08:39:10Z</time>
      </trkpt>
      <trkpt lat="45.69419" lon="4.97357">
        <ele>244</ele>
        <time>2022-03-17T08:39:42Z</time>
      </trkpt>
      <trkpt lat="45.6944" lon="4.973">
        <ele>245</ele>
        <time>2022-03-17T08:40:42Z</time>
      </trkpt>
      <trkpt lat="45.69443" lon="4.97281">
        <ele>245</ele>
        <time>2022-03-17T08:41:00Z</time>
      </trkpt>
      <trkpt lat="45.69452" lon="4.9717">
        <ele>245</ele>
        <time>2022-03-17T08:42:44Z</time>
      </trkpt>
      <trkpt lat="45.69458" lon="4.97123">
        <ele>243</ele>
        <time>2022-03-17T08:43:29Z</time>
      </trkpt>
      <trkpt lat="45.69462" lon="4.97113">
        <ele>243</ele>
        <time>2022-03-17T08:43:39Z</time>
      </trkpt>
      <trkpt lat="45.69467" lon="4.97107">
        <ele>243</ele>
        <time>2022-03-17T08:43:48Z</time>
      </trkpt>
      <trkpt lat="45.69477" lon="4.97105">
        <ele>243</ele>
        <time>2022-03-17T08:44:01Z</time>
      </trkpt>
      <trkpt lat="45.69608" lon="4.9712">
        <ele>242</ele>
        <time>2022-03-17T08:46:57Z</time>
      </trkpt>
      <trkpt lat="45.69618" lon="4.97126">
        <ele>242</ele>
        <time>2022-03-17T08:47:11Z</time>
      </trkpt>
      <trkpt lat="45.6966" lon="4.9717">
        <ele>241</ele>
        <time>2022-03-17T08:48:21Z</time>
      </trkpt>
      <trkpt lat="45.6967" lon="4.97176">
        <ele>241</ele>
        <time>2022-03-17T08:48:35Z</time>
      </trkpt>
      <trkpt lat="45.69684" lon="4.9718">
        <ele>240</ele>
        <time>2022-03-17T08:48:54Z</time>
      </trkpt>
      <trkpt lat="45.69774" lon="4.97186">
        <ele>235</ele>
        <time>2022-03-17T08:50:54Z</time>
      </trkpt>
      <trkpt lat="45.69861" lon="4.97182">
        <ele>235</ele>
        <time>2022-03-17T08:52:51Z</time>
      </trkpt>
      <trkpt lat="45.69933" lon="4.97184">
        <ele>232</ele>
        <time>2022-03-17T08:54:27Z</time>
      </trkpt>
      <trkpt lat="45.69981" lon="4.9719">
        <ele>230</ele>
        <time>2022-03-17T08:55:31Z</time>
      </trkpt>
      <trkpt lat="45.69991" lon="4.97174">
        <ele>229</ele>
        <time>2022-03-17T08:55:51Z</time>
      </trkpt>
      <trkpt lat="45.69998" lon="4.97148">
        <ele>229</ele>
        <time>2022-03-17T08:56:17Z</time>
      </trkpt>
      <trkpt lat="45.69997" lon="4.97138">
        <ele>229</ele>
        <time>2022-03-17T08:56:26Z</time>
      </trkpt>
      <trkpt lat="45.69994" lon="4.97129">
        <ele>230</ele>
        <time>2022-03-17T08:56:36Z</time>
      </trkpt>
      <trkpt lat="45.6997" lon="4.97088">
        <ele>232</ele>
        <time>2022-03-17T08:57:26Z</time>
      </trkpt>
      <trkpt lat="45.69957" lon="4.97059">
        <ele>233</ele>
        <time>2022-03-17T08:57:58Z</time>
      </trkpt>
      <trkpt lat="45.69951" lon="4.97042">
        <ele>234</ele>
        <time>2022-03-17T08:58:15Z</time>
      </trkpt>
      <trkpt lat="45.69946" lon="4.97018">
        <ele>235</ele>
        <time>2022-03-17T08:58:39Z</time>
      </trkpt>
      <trkpt lat="45.69948" lon="4.97015">
        <ele>235</ele>
        <time>2022-03-17T08:58:43Z</time>
      </trkpt>
      <trkpt lat="45.69938" lon="4.9697">
        <ele>235</ele>
        <time>2022-03-17T08:59:27Z</time>
      </trkpt>
      <trkpt lat="45.69937" lon="4.96963">
        <ele>235</ele>
        <time>2022-03-17T08:59:33Z</time>
      </trkpt>
      <trkpt lat="45.6994" lon="4.96953">
        <ele>235</ele>
        <time>2022-03-17T08:59:43Z</time>
      </trkpt>
      <trkpt lat="45.69927" lon="4.96936">
        <ele>235</ele>
        <time>2022-03-17T09:00:07Z</time>
      </trkpt>
      <trkpt lat="45.69906" lon="4.96899">
        <ele>235</ele>
        <time>2022-03-17T09:00:51Z</time>
      </trkpt>
      <trkpt lat="45.69889" lon="4.96856">
        <ele>234</ele>
        <time>2022-03-17T09:01:37Z</time>
      </trkpt>
      <trkpt lat="45.69874" lon="4.96805">
        <ele>234</ele>
        <time>2022-03-17T09:02:29Z</time>
      </trkpt>
      <trkpt lat="45.69856" lon="4.96743">
        <ele>233</ele>
        <time>2022-03-17T09:03:32Z</time>
      </trkpt>
      <trkpt lat="45.6984" lon="4.96683">
        <ele>232</ele>
        <time>2022-03-17T09:04:31Z</time>
      </trkpt>
      <trkpt lat="45.69833" lon="4.96685">
        <ele>232</ele>
        <time>2022-03-17T09:04:41Z</time>
      </trkpt>
      <trkpt lat="45.69827" lon="4.96673">
        <ele>232</ele>
        <time>2022-03-17T09:04:55Z</time>
      </trkpt>
      <trkpt lat="45.69822" lon="4.96668">
        <ele>232</ele>
        <time>2022-03-17T09:05:03Z</time>
      </trkpt>
      <trkpt lat="45.69836" lon="4.96735">
        <ele>234</ele>
        <time>2022-03-17T09:06:08Z</time>
      </trkpt>
      <trkpt lat="45.6983" lon="4.96753">
        <ele>234</ele>
        <time>2022-03-17T09:06:27Z</time>
      </trkpt>
      <trkpt lat="45.69757" lon="4.96833">
        <ele>237</ele>
        <time>2022-03-17T09:08:29Z</time>
      </trkpt>
      <trkpt lat="45.69735" lon="4.96849">
        <ele>238</ele>
        <time>2022-03-17T09:09:02Z</time>
      </trkpt>
      <trkpt lat="45.69713" lon="4.96861">
        <ele>239</ele>
        <time>2022-03-17T09:09:34Z</time>
      </trkpt>
      <trkpt lat="45.69704" lon="4.96862">
        <ele>239</ele>
        <time>2022-03-17T09:09:46Z</time>
      </trkpt>
      <trkpt lat="45.69682" lon="4.96859">
        <ele>241</ele>
        <time>2022-03-17T09:10:15Z</time>
      </trkpt>
      <trkpt lat="45.69655" lon="4.96875">
        <ele>242</ele>
        <time>2022-03-17T09:10:54Z</time>
      </trkpt>
      <trkpt lat="45.69643" lon="4.96879">
        <ele>243</ele>
        <time>2022-03-17T09:11:11Z</time>
      </trkpt>
      <trkpt lat="45.69622" lon="4.96893">
        <ele>244</ele>
        <time>2022-03-17T09:11:42Z</time>
      </trkpt>
      <trkpt lat="45.69602" lon="4.96901">
        <ele>246</ele>
        <time>2022-03-17T09:12:09Z</time>
      </trkpt>
      <trkpt lat="45.69576" lon="4.96904">
        <ele>247</ele>
        <time>2022-03-17T09:12:44Z</time>
      </trkpt>
      <trkpt lat="45.69565" lon="4.9692">
        <ele>247</ele>
        <time>2022-03-17T09:13:05Z</time>
      </trkpt>
      <trkpt lat="45.69555" lon="4.96917">
        <ele>247</ele>
        <time>2022-03-17T09:13:19Z</time>
      </trkpt>
      <trkpt lat="45.69539" lon="4.96905">
        <ele>249</ele>
        <time>2022-03-17T09:13:43Z</time>
      </trkpt>
      <trkpt lat="45.69527" lon="4.96903">
        <ele>249</ele>
        <time>2022-03-17T09:13:59Z</time>
      </trkpt>
      <trkpt lat="45.69518" lon="4.96895">
        <ele>250</ele>
        <time>2022-03-17T09:14:13Z</time>
      </trkpt>
      <trkpt lat="45.69516" lon="4.9688">
        <ele>251</ele>
        <time>2022-03-17T09:14:27Z</time>
      </trkpt>
      <trkpt lat="45.69488" lon="4.96853">
        <ele>251</ele>
        <time>2022-03-17T09:15:12Z</time>
      </trkpt>
      <trkpt lat="45.69478" lon="4.96854">
        <ele>250</ele>
        <time>2022-03-17T09:15:26Z</time>
      </trkpt>
      <trkpt lat="45.69453" lon="4.96822">
        <ele>251</ele>
        <time>2022-03-17T09:16:10Z</time>
      </trkpt>
      <trkpt lat="45.69437" lon="4.96816">
        <ele>251</ele>
        <time>2022-03-17T09:16:33Z</time>
      </trkpt>
      <trkpt lat="45.69429" lon="4.96802">
        <ele>253</ele>
        <time>2022-03-17T09:16:49Z</time>
      </trkpt>
      <trkpt lat="45.69409" lon="4.96788">
        <ele>254</ele>
        <time>2022-03-17T09:17:19Z</time>
      </trkpt>
      <trkpt lat="45.69356" lon="4.96736">
        <ele>255</ele>
        <time>2022-03-17T09:18:45Z</time>
      </trkpt>
      <trkpt lat="45.69336" lon="4.96708">
        <ele>254</ele>
        <time>2022-03-17T09:19:22Z</time>
      </trkpt>
      <trkpt lat="45.69326" lon="4.96706">
        <ele>254</ele>
        <time>2022-03-17T09:19:36Z</time>
      </trkpt>
      <trkpt lat="45.69322" lon="4.96694">
        <ele>254</ele>
        <time>2022-03-17T09:19:48Z</time>
      </trkpt>
      <trkpt lat="45.69307" lon="4.96689">
        <ele>253</ele>
        <time>2022-03-17T09:20:09Z</time>
      </trkpt>
      <trkpt lat="45.69299" lon="4.96681">
        <ele>252</ele>
        <time>2022-03-17T09:20:22Z</time>
      </trkpt>
      <trkpt lat="45.69302" lon="4.96665">
        <ele>253</ele>
        <time>2022-03-17T09:20:37Z</time>
      </trkpt>
      <trkpt lat="45.69321" lon="4.96602">
        <ele>254</ele>
        <time>2022-03-17T09:21:41Z</time>
      </trkpt>
      <trkpt lat="45.69322" lon="4.96505">
        <ele>254</ele>
        <time>2022-03-17T09:23:11Z</time>
      </trkpt>
      <trkpt lat="45.69345" lon="4.96449">
        <ele>252</ele>
        <time>2022-03-17T09:24:12Z</time>
      </trkpt>
      <trkpt lat="45.69346" lon="4.96439">
        <ele>251</ele>
        <time>2022-03-17T09:24:21Z</time>
      </trkpt>
      <trkpt lat="45.69346" lon="4.96428">
        <ele>250</ele>
        <time>2022-03-17T09:24:32Z</time>
      </trkpt>
      <trkpt lat="45.69338" lon="4.96413">
        <ele>249</ele>
        <time>2022-03-17T09:24:49Z</time>
      </trkpt>
      <trkpt lat="45.69324" lon="4.96397">
        <ele>247</ele>
        <time>2022-03-17T09:25:13Z</time>
      </trkpt>
      <trkpt lat="45.69311" lon="4.9639">
        <ele>245</ele>
        <time>2022-03-17T09:25:32Z</time>
      </trkpt>
      <trkpt lat="45.69336" lon="4.96394">
        <ele>247</ele>
        <time>2022-03-17T09:26:05Z</time>
      </trkpt>
      <trkpt lat="45.69346" lon="4.9639">
        <ele>247</ele>
        <time>2022-03-17T09:26:19Z</time>
      </trkpt>
      <trkpt lat="45.69281" lon="4.96354">
        <ele>242</ele>
        <time>2022-03-17T09:27:52Z</time>
      </trkpt>
      <trkpt lat="45.69266" lon="4.96342">
        <ele>241</ele>
        <time>2022-03-17T09:28:15Z</time>
      </trkpt>
      <trkpt lat="45.69263" lon="4.96335">
        <ele>240</ele>
        <time>2022-03-17T09:28:23Z</time>
      </trkpt>
      <trkpt lat="45.69262" lon="4.96326">
        <ele>240</ele>
        <time>2022-03-17T09:28:31Z</time>
      </trkpt>
      <trkpt lat="45.69262" lon="4.96321">
        <ele>240</ele>
        <time>2022-03-17T09:28:36Z</time>
      </trkpt>
      <trkpt lat="45.69237" lon="4.96322">
        <ele>239</ele>
        <time>2022-03-17T09:29:09Z</time>
      </trkpt>
      <trkpt lat="45.69235" lon="4.96226">
        <ele>237</ele>
        <time>2022-03-17T09:30:39Z</time>
      </trkpt>
      <trkpt lat="45.6924" lon="4.96184">
        <ele>236</ele>
        <time>2022-03-17T09:31:18Z</time>
      </trkpt>
      <trkpt lat="45.69237" lon="4.96165">
        <ele>236</ele>
        <time>2022-03-17T09:31:37Z</time>
      </trkpt>
      <trkpt lat="45.69232" lon="4.96161">
        <ele>236</ele>
        <time>2022-03-17T09:31:44Z</time>
      </trkpt>
      <trkpt lat="45.69228" lon="4.9616">
        <ele>236</ele>
        <time>2022-03-17T09:31:50Z</time>
      </trkpt>
      <trkpt lat="45.6925" lon="4.95771">
        <ele>230</ele>
        <time>2022-03-17T09:37:53Z</time>
      </trkpt>
      <trkpt lat="45.69244" lon="4.95768">
        <ele>230</ele>
        <time>2022-03-17T09:38:02Z</time>
      </trkpt>
      <trkpt lat="45.6924" lon="4.9576">
        <ele>230</ele>
        <time>2022-03-17T09:38:11Z</time>
      </trkpt>
      <trkpt lat="45.69239" lon="4.95751">
        <ele>230</ele>
        <time>2022-03-17T09:38:20Z</time>
      </trkpt>
      <trkpt lat="45.69242" lon="4.95741">
        <ele>230</ele>
        <time>2022-03-17T09:38:30Z</time>
      </trkpt>
      <trkpt lat="45.69247" lon="4.95736">
        <ele>230</ele>
        <time>2022-03-17T09:38:38Z</time>
      </trkpt>
      <trkpt lat="45.69248" lon="4.95725">
        <ele>229</ele>
        <time>2022-03-17T09:38:48Z</time>
      </trkpt>
      <trkpt lat="45.69254" lon="4.95724">
        <ele>229</ele>
        <time>2022-03-17T09:38:56Z</time>
      </trkpt>
    </trkseg>
  </trk>
</gpx>